Stillwater, OK (74075)

8:31 AM CST on December 05, 2016 (GMT -0600)
Asco Aerospace USA LLC Stillwater Industrial Park | | Change Station
Active Advisory: Dense Fog Advisory

Elev 965 ft 36.15 °N, 97.05 °W | Updated 1 minute ago

Partly Cloudy
Partly Cloudy
31.5 °F
Feels Like 32 °F
N
3.0
Wind Variable Wind from SE
Gusts 4.0 mph

Today
High -- | Low -- °F
--% Chance of Precip.
Yesterday
High -- | Low -- °F
Precip. -- in
Pressure 29.87 in
Visibility 2.0 miles
Clouds Few 100 ft
Windchill 32 °F
Dew Point 31 °F
Humidity 96%
Rainfall in
Snow Depth Not available.
7:24 AM 5:13 PM
Waxing Crescent, 32% visible
SPECI KSWO 051410Z 12004KT 2SM BR FEW001 00/M01 A2987 RMK AO2 T00001006
Pressure 29.87 in
Visibility 2.0 miles
Clouds Few 100 ft
Windchill 32 °F
Dew Point 31 °F
Humidity 96%
Rainfall in
Snow Depth Not available.
7:24 AM 5:13 PM
Waxing Crescent, 32% visible
SPECI KSWO 051410Z 12004KT 2SM BR FEW001 00/M01 A2987 RMK AO2 T00001006

10-Day Weather Forecast

Almanac

Astronomy

Dec. 05, 2016 Rise Set
Actual Time
Civil Twilight
Nautical Twilight
Astronomical Twilight
Moon
Length of Visible Light
Length of Day
Tomorrow will be .
, % of the Moon is Illuminated

Today's Extremes

State Highs State Lows

Community

WunderPhotos

Upload Photos

1,955,782 photos uploaded!

WunderBlog® & News

Nearby

Air Quality

  Air Quality AQ Index Pollutant
Not available.

Snow Depth

Station Depth Elevation

Earthquake Activity

City Distance Mag. Time & Date
Minimum magnitude displayed is 2.5.

Coastal Water Temperatures

Place Temperature

Stations

Nearby Weather Stations

Station Location Temp. Windchill Dew Point Humidity Wind Precip. Elev Updated Type
                   

Watches & Warnings

Dense Fog Advisory
Issued: 8:29 AM CST Dec. 5, 2016 – National Weather Service

... Dense fog advisory now in effect until 10 am CST this
morning...

* visibility... less than one half mile.

* Impacts... reduced visibility which will cause hazardous
driving conditions. Some locations are below freezing and
light ice accumulation is possible on bridges and overpasses.

Precautionary/preparedness actions...

If you have to drive... slow down... use your low beam headlights...
and leave plenty of space between you and other vehicles.